createdAt,value
2022-10-22T00:01:20.177Z,5.67
2022-10-22T00:03:47.914Z,5.80
2022-10-22T00:06:15.474Z,5.53
2022-10-22T00:08:43.236Z,5.30
2022-10-22T00:11:12.976Z,6.17
2022-10-22T00:13:42.792Z,6.20
2022-10-22T00:16:10.949Z,5.80
2022-10-22T00:18:38.994Z,5.63
2022-10-22T00:21:07.659Z,5.90
2022-10-22T00:23:35.765Z,6.57
2022-10-22T00:26:03.274Z,5.10
2022-10-22T00:28:30.833Z,5.70
2022-10-22T00:31:01.590Z,5.93
2022-10-22T00:33:30.362Z,5.70
2022-10-22T00:35:58.054Z,5.27
2022-10-22T00:38:25.675Z,5.00
2022-10-22T00:40:53.218Z,5.20
2022-10-22T00:43:21.361Z,5.33
2022-10-22T00:45:48.937Z,5.50
2022-10-22T00:48:20.942Z,5.13
2022-10-22T00:50:55.530Z,5.00
2022-10-22T00:53:27.019Z,4.87
2022-10-22T00:55:55.743Z,4.93
2022-10-22T00:58:29.052Z,4.90
2022-10-22T01:00:58.030Z,5.67
2022-10-22T01:03:27.032Z,4.50
2022-10-22T01:05:58.002Z,4.50
2022-10-22T01:08:33.867Z,5.00
2022-10-22T01:11:13.580Z,4.10
2022-10-22T01:13:54.372Z,4.03
2022-10-22T01:16:31.365Z,4.00
2022-10-22T01:19:12.360Z,3.60
2022-10-22T01:21:44.939Z,3.97
2022-10-22T01:24:45.960Z,4.13
2022-10-22T01:27:25.239Z,3.33
2022-10-22T01:29:57.595Z,3.00
2022-10-22T01:32:27.042Z,3.20
2022-10-22T01:34:58.175Z,2.93
2022-10-22T01:37:30.446Z,3.07
2022-10-22T01:40:00.586Z,2.67
2022-10-22T01:42:28.298Z,2.50
2022-10-22T01:44:57.187Z,2.40
2022-10-22T01:47:40.224Z,2.57
2022-10-22T01:50:24.995Z,2.30
2022-10-22T01:53:02.547Z,2.00
2022-10-22T01:55:37.282Z,2.77
2022-10-22T01:58:19.447Z,2.43
2022-10-22T02:00:55.620Z,2.47
2022-10-22T02:03:29.158Z,2.33
2022-10-22T02:06:00.686Z,2.13
2022-10-22T02:08:32.048Z,1.77
2022-10-22T02:11:01.853Z,2.47
2022-10-22T02:13:32.909Z,2.37
2022-10-22T02:16:04.441Z,1.83
2022-10-22T02:18:36.414Z,2.00
2022-10-22T02:23:36.279Z,2.63
2022-10-22T02:26:11.051Z,1.83
2022-10-22T02:28:45.472Z,1.90
2022-10-22T02:31:19.192Z,2.27
2022-10-22T02:33:50.029Z,2.03
2022-10-22T02:36:18.936Z,1.80
2022-10-22T02:38:48.574Z,2.13
2022-10-22T02:41:17.008Z,1.80
2022-10-22T02:43:46.500Z,1.97
2022-10-22T02:46:15.789Z,1.90
2022-10-22T02:48:43.494Z,1.90
2022-10-22T02:51:11.023Z,1.60
2022-10-22T02:53:38.575Z,1.63
2022-10-22T02:56:06.674Z,1.60
2022-10-22T02:58:34.265Z,1.80
2022-10-22T03:01:02.143Z,1.60
2022-10-22T03:03:31.099Z,1.80
2022-10-22T03:05:58.723Z,1.40
2022-10-22T03:08:26.449Z,1.63
2022-10-22T03:10:54.156Z,1.50
2022-10-22T03:13:21.782Z,1.63
2022-10-22T03:15:50.235Z,1.40
2022-10-22T03:18:17.899Z,1.47
2022-10-22T03:20:46.878Z,1.30
2022-10-22T03:23:17.778Z,1.43
2022-10-22T03:25:47.955Z,1.70
2022-10-22T03:28:18.084Z,1.60
2022-10-22T03:30:45.647Z,1.90
2022-10-22T03:33:13.162Z,1.40
2022-10-22T03:35:46.404Z,1.90
2022-10-22T03:38:15.878Z,1.70
2022-10-22T03:40:45.319Z,1.80
2022-10-22T03:43:13.461Z,1.37
2022-10-22T03:45:40.979Z,1.73
2022-10-22T03:48:08.761Z,1.83
2022-10-22T03:50:36.329Z,1.37
2022-10-22T03:53:04.504Z,1.80
2022-10-22T03:55:33.384Z,1.40
2022-10-22T03:58:00.925Z,1.40
2022-10-22T04:00:28.500Z,1.33
2022-10-22T04:02:56.070Z,1.10
2022-10-22T04:05:23.588Z,1.90
2022-10-22T04:07:51.142Z,1.30
2022-10-22T04:10:18.938Z,1.20
2022-10-22T04:12:49.600Z,1.50
2022-10-22T04:15:17.441Z,1.37
2022-10-22T04:17:45.152Z,1.13
2022-10-22T04:20:12.785Z,1.50
2022-10-22T04:22:40.347Z,1.20
2022-10-22T04:25:08.480Z,1.20
2022-10-22T04:27:37.754Z,1.40
2022-10-22T04:30:08.175Z,1.50
2022-10-22T04:32:35.767Z,1.20
2022-10-22T04:35:03.457Z,1.40
2022-10-22T04:37:32.810Z,1.23
2022-10-22T04:40:00.341Z,1.33
2022-10-22T04:42:28.018Z,1.57
2022-10-22T04:44:55.530Z,1.57
2022-10-22T04:47:24.450Z,1.30
2022-10-22T04:49:51.977Z,1.50
2022-10-22T04:52:19.539Z,1.20
2022-10-22T04:54:48.072Z,1.73
2022-10-22T04:57:15.609Z,1.17
2022-10-22T04:59:43.156Z,1.53
2022-10-22T05:02:10.662Z,1.97
2022-10-22T05:04:39.522Z,2.00
2022-10-22T05:07:07.036Z,1.20
2022-10-22T05:09:34.534Z,1.67
2022-10-22T05:12:02.081Z,2.10
2022-10-22T05:14:29.720Z,1.70
2022-10-22T05:16:57.248Z,1.77
2022-10-22T05:19:27.517Z,1.53
2022-10-22T05:21:58.767Z,1.50
2022-10-22T05:24:27.547Z,1.50
2022-10-22T05:26:57.472Z,1.80
2022-10-22T05:29:25.710Z,1.70
2022-10-22T05:31:53.406Z,1.83
2022-10-22T05:34:21.087Z,1.17
2022-10-22T05:36:48.706Z,1.70
2022-10-22T05:39:17.665Z,1.47
2022-10-22T05:41:45.221Z,1.40
2022-10-22T05:44:13.886Z,1.70
2022-10-22T05:46:43.207Z,1.70
2022-10-22T05:49:14.776Z,1.33
2022-10-22T05:51:42.466Z,1.63
2022-10-22T05:54:16.551Z,1.40
2022-10-22T05:56:45.501Z,1.50
2022-10-22T05:59:13.044Z,1.33
2022-10-22T06:01:41.187Z,1.63
2022-10-22T06:04:11.669Z,1.77
2022-10-22T06:06:42.003Z,1.80
2022-10-22T06:09:16.721Z,1.40
2022-10-22T06:11:45.901Z,1.40
2022-10-22T06:14:13.841Z,1.60
2022-10-22T06:16:41.818Z,1.57
2022-10-22T06:19:10.950Z,1.53
2022-10-22T06:21:38.935Z,1.50
2022-10-22T06:24:07.261Z,1.53
2022-10-22T06:26:34.852Z,1.90
2022-10-22T06:29:03.783Z,1.30
2022-10-22T06:31:36.524Z,1.50
2022-10-22T06:34:04.188Z,1.50
2022-10-22T06:36:31.926Z,1.80
2022-10-22T06:38:59.652Z,2.27
2022-10-22T06:41:29.873Z,1.83
2022-10-22T06:43:58.365Z,1.80
2022-10-22T06:46:27.826Z,1.80
2022-10-22T06:48:57.018Z,1.40
2022-10-22T06:51:24.909Z,2.00
2022-10-22T06:53:52.735Z,2.60
2022-10-22T06:56:23.560Z,1.83
2022-10-22T06:58:52.296Z,1.50
2022-10-22T07:01:21.912Z,1.20
2022-10-22T07:03:52.140Z,1.53
2022-10-22T07:06:20.333Z,1.40
2022-10-22T07:08:48.190Z,1.80
2022-10-22T07:11:18.486Z,1.40
2022-10-22T07:13:46.588Z,1.30
2022-10-22T07:16:14.779Z,1.53
2022-10-22T07:18:44.515Z,1.70
2022-10-22T07:21:15.038Z,1.30
2022-10-22T07:23:42.975Z,2.20
2022-10-22T07:26:10.866Z,2.10
2022-10-22T07:28:40.923Z,1.23
2022-10-22T07:31:09.776Z,1.80
2022-10-22T07:33:38.394Z,1.30
2022-10-22T07:36:08.493Z,1.57
2022-10-22T07:38:37.649Z,1.60
2022-10-22T07:41:05.687Z,1.40
2022-10-22T07:43:33.292Z,1.30
2022-10-22T07:46:02.700Z,1.10
2022-10-22T07:48:30.304Z,1.63
2022-10-22T07:50:58.249Z,1.43
2022-10-22T07:53:25.984Z,1.40
2022-10-22T07:55:54.977Z,1.30
2022-10-22T07:58:24.893Z,1.10
2022-10-22T08:00:52.561Z,1.57
2022-10-22T08:03:20.142Z,1.40
2022-10-22T08:05:48.521Z,1.60
2022-10-22T08:08:18.132Z,1.90
2022-10-22T08:10:46.872Z,1.93
2022-10-22T08:13:16.238Z,1.87
2022-10-22T08:18:16.880Z,1.67
2022-10-22T08:20:44.759Z,1.27
2022-10-22T08:23:12.434Z,1.30
2022-10-22T08:25:40.014Z,1.10
2022-10-22T08:28:07.572Z,1.40
2022-10-22T08:30:38.533Z,1.20
2022-10-22T08:33:06.668Z,1.80
2022-10-22T08:35:34.374Z,1.33
2022-10-22T08:38:02.062Z,1.40
2022-10-22T08:40:33.357Z,1.33
2022-10-22T08:43:24.205Z,1.20
2022-10-22T08:46:05.988Z,0.90
2022-10-22T08:48:44.129Z,1.40
2022-10-22T08:51:15.801Z,1.33
2022-10-22T08:53:52.610Z,1.40
2022-10-22T08:56:24.166Z,0.97
2022-10-22T08:58:56.871Z,0.90
2022-10-22T09:01:34.079Z,0.90
2022-10-22T09:04:07.735Z,1.30
2022-10-22T09:06:37.753Z,1.10
2022-10-22T09:09:12.091Z,0.97
2022-10-22T09:11:41.918Z,1.20
2022-10-22T09:17:03.332Z,1.00
2022-10-22T09:19:38.613Z,0.90
2022-10-22T09:22:16.440Z,1.07
2022-10-22T09:24:46.764Z,0.90
2022-10-22T09:27:17.238Z,1.20
2022-10-22T09:29:46.051Z,1.10
2022-10-22T09:32:15.588Z,1.10
2022-10-22T09:34:45.771Z,1.00
2022-10-22T09:37:16.848Z,1.73
2022-10-22T09:39:47.177Z,2.10
2022-10-22T09:42:16.952Z,1.10
2022-10-22T09:44:47.776Z,1.10
2022-10-22T09:47:42.883Z,1.00
2022-10-22T09:50:22.996Z,1.10
2022-10-22T09:53:01.640Z,0.90
2022-10-22T09:55:29.570Z,1.20
2022-10-22T09:57:59.757Z,0.90
2022-10-22T10:00:28.731Z,1.10
2022-10-22T10:02:58.839Z,1.07
2022-10-22T10:05:29.132Z,1.20
2022-10-22T10:07:56.875Z,0.80
2022-10-22T10:10:34.815Z,0.90
2022-10-22T10:13:15.754Z,1.03
2022-10-22T10:15:50.023Z,0.97
2022-10-22T10:18:31.414Z,0.90
2022-10-22T10:21:10.512Z,1.10
2022-10-22T10:23:49.514Z,1.00
2022-10-22T10:26:23.306Z,1.20
2022-10-22T10:29:09.979Z,1.00
2022-10-22T10:31:49.759Z,1.20
2022-10-22T10:34:30.762Z,0.90
2022-10-22T10:37:14.570Z,0.80
2022-10-22T10:40:03.895Z,1.10
2022-10-22T10:42:37.734Z,1.00
2022-10-22T10:45:17.507Z,1.27
2022-10-22T10:48:08.431Z,1.33
2022-10-22T10:50:50.589Z,1.00
2022-10-22T10:53:26.566Z,1.20
2022-10-22T10:56:02.722Z,1.07
2022-10-22T10:58:40.271Z,1.03
2022-10-22T11:01:16.976Z,1.10
2022-10-22T11:04:18.833Z,1.10
2022-10-22T11:06:47.922Z,0.90
2022-10-22T11:09:25.612Z,0.83
2022-10-22T11:11:58.302Z,0.97
2022-10-22T11:14:32.958Z,0.93
2022-10-22T11:17:06.049Z,1.17
2022-10-22T11:19:57.816Z,1.30
2022-10-22T11:22:35.171Z,1.13
2022-10-22T11:25:15.204Z,1.10
2022-10-22T11:27:48.874Z,1.10
2022-10-22T11:30:18.900Z,1.00
2022-10-22T11:32:50.575Z,1.20
2022-10-22T11:35:25.835Z,0.83
2022-10-22T11:37:57.105Z,1.00
2022-10-22T11:40:34.262Z,1.07
2022-10-22T11:43:06.963Z,1.10
2022-10-22T11:45:38.987Z,1.07
2022-10-22T11:48:16.552Z,1.20
2022-10-22T11:50:53.002Z,1.00
2022-10-22T11:53:31.588Z,1.13
2022-10-22T11:56:04.493Z,1.10
2022-10-22T11:58:44.240Z,1.00
2022-10-22T12:01:23.895Z,1.13
2022-10-22T12:03:53.589Z,1.00
2022-10-22T12:06:24.275Z,0.93
2022-10-22T12:09:01.273Z,1.20
2022-10-22T12:11:36.406Z,1.63
2022-10-22T12:14:17.075Z,0.80
2022-10-22T12:17:02.238Z,1.13
2022-10-22T12:19:32.816Z,0.83
2022-10-22T12:22:07.425Z,1.40
2022-10-22T12:24:40.474Z,1.10
2022-10-22T12:27:22.223Z,1.30
2022-10-22T12:29:54.540Z,1.13
2022-10-22T12:32:22.319Z,1.67
2022-10-22T12:34:51.516Z,0.90
2022-10-22T12:37:20.566Z,1.00
2022-10-22T12:39:49.510Z,1.20
2022-10-22T12:42:19.222Z,1.40
2022-10-22T12:44:46.874Z,1.60
2022-10-22T12:47:17.685Z,1.20
2022-10-22T12:49:48.845Z,1.00
2022-10-22T12:52:19.676Z,1.60
2022-10-22T12:54:54.438Z,1.20
2022-10-22T12:57:24.182Z,1.73
2022-10-22T12:59:52.986Z,1.53
2022-10-22T13:02:24.356Z,4.67
2022-10-22T13:05:27.338Z,1.20
2022-10-22T13:08:02.570Z,1.13
2022-10-22T13:10:36.688Z,1.13
2022-10-22T13:13:06.739Z,1.53
2022-10-22T13:15:40.177Z,1.10
2022-10-22T13:18:17.765Z,1.50
2022-10-22T13:20:53.152Z,1.70
2022-10-22T13:23:22.490Z,1.30
2022-10-22T13:26:01.210Z,1.57
2022-10-22T13:28:30.142Z,1.00
2022-10-22T13:31:00.205Z,1.40
2022-10-22T13:33:31.059Z,1.50
2022-10-22T13:35:59.232Z,1.40
2022-10-22T13:38:28.282Z,1.00
2022-10-22T13:40:56.474Z,1.30
2022-10-22T13:43:26.066Z,1.10
2022-10-22T13:45:56.792Z,1.27
2022-10-22T13:48:25.960Z,1.13
2022-10-22T13:50:54.351Z,1.03
2022-10-22T13:53:24.608Z,1.00
2022-10-22T13:55:52.213Z,1.30
2022-10-22T13:58:21.285Z,1.27
2022-10-22T14:00:54.330Z,1.37
2022-10-22T14:03:24.636Z,1.30
2022-10-22T14:05:52.251Z,1.10
2022-10-22T14:08:23.138Z,1.00
2022-10-22T14:10:50.659Z,1.20
2022-10-22T14:13:21.228Z,1.30
2022-10-22T14:15:52.283Z,1.30
2022-10-22T14:18:25.452Z,1.20
2022-10-22T14:20:55.003Z,1.43
2022-10-22T14:23:25.231Z,1.00
2022-10-22T14:25:52.958Z,1.23
2022-10-22T14:28:20.822Z,1.60
2022-10-22T14:30:50.615Z,1.33
2022-10-22T14:33:23.158Z,1.30
2022-10-22T14:35:53.472Z,1.20
2022-10-22T14:38:21.385Z,1.07
2022-10-22T14:40:49.603Z,1.40
2022-10-22T14:43:21.825Z,1.40
2022-10-22T14:45:50.862Z,1.50
2022-10-22T14:50:48.316Z,1.57
2022-10-22T14:53:17.597Z,1.60
2022-10-22T14:55:49.163Z,1.97
2022-10-22T14:58:16.880Z,1.57
2022-10-22T15:00:45.215Z,1.73
2022-10-22T15:03:14.120Z,2.13
2022-10-22T15:05:43.921Z,1.43
2022-10-22T15:08:11.739Z,1.40
2022-10-22T15:10:40.100Z,1.30
2022-10-22T15:13:07.895Z,1.70
2022-10-22T15:15:39.598Z,1.43
2022-10-22T15:18:07.723Z,1.67
2022-10-22T15:20:36.757Z,5.40
2022-10-22T15:23:04.344Z,2.17
2022-10-22T15:25:31.934Z,1.50
2022-10-22T15:28:02.093Z,1.30
2022-10-22T15:30:36.685Z,1.67
2022-10-22T15:33:04.297Z,1.50
2022-10-22T15:35:31.937Z,1.50
2022-10-22T15:38:00.862Z,1.63
2022-10-22T15:40:28.441Z,1.80
2022-10-22T15:42:56.008Z,1.30
2022-10-22T15:45:24.953Z,1.30
2022-10-22T15:47:52.563Z,1.50
2022-10-22T15:50:20.096Z,2.60
2022-10-22T15:52:47.615Z,1.47
2022-10-22T15:55:17.267Z,1.50
2022-10-22T15:57:45.110Z,1.37
2022-10-22T16:00:13.688Z,1.70
2022-10-22T16:02:41.488Z,1.57
2022-10-22T16:05:09.942Z,1.53
2022-10-22T16:07:37.507Z,1.50
2022-10-22T16:10:07.549Z,1.60
2022-10-22T16:12:36.675Z,1.43
2022-10-22T16:15:05.223Z,1.83
2022-10-22T16:17:32.825Z,2.10
2022-10-22T16:20:00.476Z,1.50
2022-10-22T16:22:28.111Z,1.90
2022-10-22T16:24:55.611Z,1.70
2022-10-22T16:27:23.243Z,1.63
2022-10-22T16:29:52.175Z,1.30
2022-10-22T16:32:20.195Z,1.60
2022-10-22T16:34:47.835Z,2.00
2022-10-22T16:37:15.410Z,2.00
2022-10-22T16:39:43.049Z,1.80
2022-10-22T16:42:10.576Z,2.20
2022-10-22T16:44:38.235Z,1.60
2022-10-22T16:47:07.205Z,1.70
2022-10-22T16:49:37.144Z,1.80
2022-10-22T16:52:05.275Z,2.67
2022-10-22T16:54:32.828Z,1.90
2022-10-22T16:57:00.403Z,2.20
2022-10-22T16:59:28.041Z,2.00
2022-10-22T17:01:55.802Z,1.90
2022-10-22T17:04:25.007Z,1.80
2022-10-22T17:06:52.807Z,1.83
2022-10-22T17:09:20.596Z,1.93
2022-10-22T17:11:48.299Z,1.60
2022-10-22T17:14:15.934Z,2.00
2022-10-22T17:16:44.773Z,2.10
2022-10-22T17:19:17.397Z,1.70
2022-10-22T17:21:46.418Z,2.20
2022-10-22T17:24:14.036Z,1.90
2022-10-22T17:26:41.636Z,2.00
2022-10-22T17:29:09.198Z,1.97
2022-10-22T17:31:37.988Z,3.00
2022-10-22T17:34:06.811Z,2.23
2022-10-22T17:36:37.110Z,2.70
2022-10-22T17:39:08.151Z,2.57
2022-10-22T17:41:37.926Z,2.70
2022-10-22T17:44:08.744Z,2.20
2022-10-22T17:46:36.600Z,2.70
2022-10-22T17:49:06.868Z,2.00
2022-10-22T17:51:34.680Z,2.70
2022-10-22T17:54:04.627Z,2.30
2022-10-22T17:56:36.989Z,2.53
2022-10-22T17:59:04.710Z,2.40
2022-10-22T18:01:34.803Z,2.60
2022-10-22T18:04:05.682Z,3.10
2022-10-22T18:06:34.477Z,2.50
2022-10-22T18:09:05.005Z,2.70
2022-10-22T18:11:32.913Z,2.13
2022-10-22T18:14:01.931Z,2.10
2022-10-22T18:16:29.610Z,3.13
2022-10-22T18:18:58.423Z,2.30
2022-10-22T18:21:28.588Z,2.17
2022-10-22T18:23:57.679Z,2.53
2022-10-22T18:26:26.933Z,2.30
2022-10-22T18:28:55.163Z,2.50
2022-10-22T18:31:25.753Z,2.50
2022-10-22T18:36:28.066Z,2.00
2022-10-22T18:38:58.674Z,2.70
2022-10-22T18:41:27.582Z,2.50
2022-10-22T18:43:56.890Z,1.97
2022-10-22T18:46:26.387Z,2.30
2022-10-22T18:48:54.249Z,2.07
2022-10-22T18:51:22.253Z,1.73
2022-10-22T18:54:04.526Z,2.60
2022-10-22T18:56:39.737Z,2.13
2022-10-22T18:59:07.395Z,1.80
2022-10-22T19:01:36.364Z,3.07
2022-10-22T19:04:03.943Z,1.93
2022-10-22T19:06:34.440Z,2.63
2022-10-22T19:09:05.069Z,2.50
2022-10-22T19:11:33.837Z,2.43
2022-10-22T19:14:01.490Z,2.43
2022-10-22T19:16:29.189Z,2.03
2022-10-22T19:19:03.090Z,2.53
2022-10-22T19:21:31.131Z,2.70
2022-10-22T19:23:59.237Z,2.50
2022-10-22T19:26:28.534Z,3.67
2022-10-22T19:28:56.992Z,3.70
2022-10-22T19:31:26.584Z,3.80
2022-10-22T19:33:55.456Z,4.13
2022-10-22T19:36:27.482Z,3.73
2022-10-22T19:38:55.584Z,3.80
2022-10-22T19:41:24.940Z,4.10
2022-10-22T19:43:54.463Z,4.37
2022-10-22T19:46:23.431Z,3.83
2022-10-22T19:48:52.295Z,4.13
2022-10-22T19:51:21.750Z,4.70
2022-10-22T19:53:51.633Z,4.23
2022-10-22T19:56:21.197Z,5.00
2022-10-22T19:58:49.049Z,5.00
2022-10-22T20:01:18.372Z,4.37
2022-10-22T20:03:46.640Z,4.53
2022-10-22T20:06:18.199Z,3.93
2022-10-22T20:08:46.747Z,4.00
2022-10-22T20:11:19.891Z,3.63
2022-10-22T20:13:51.441Z,4.70
2022-10-22T20:16:23.512Z,5.10
2022-10-22T20:18:51.100Z,4.20
2022-10-22T20:21:19.992Z,3.77
2022-10-22T20:23:48.625Z,4.13
2022-10-22T20:26:17.711Z,5.23
2022-10-22T20:28:45.334Z,5.37
2022-10-22T20:31:14.209Z,4.93
2022-10-22T20:33:41.903Z,4.70
2022-10-22T20:36:14.157Z,4.67
2022-10-22T20:38:41.713Z,4.50
2022-10-22T20:41:12.349Z,4.83
2022-10-22T20:43:41.234Z,5.20
2022-10-22T20:46:08.860Z,4.70
2022-10-22T20:48:36.412Z,4.63
2022-10-22T20:51:04.881Z,4.80
2022-10-22T20:53:32.581Z,5.80
2022-10-22T20:56:00.179Z,4.80
2022-10-22T20:58:30.542Z,5.10
2022-10-22T21:01:05.344Z,6.07
2022-10-22T21:06:01.483Z,5.37
2022-10-22T21:08:29.070Z,4.53
2022-10-22T21:10:56.551Z,5.20
2022-10-22T21:13:24.106Z,4.80
2022-10-22T21:15:51.764Z,4.70
2022-10-22T21:18:20.623Z,5.93
2022-10-22T21:20:48.230Z,5.60
2022-10-22T21:23:16.041Z,6.20
2022-10-22T21:25:54.765Z,5.77
2022-10-22T21:28:22.527Z,5.50
2022-10-22T21:30:50.253Z,5.50
2022-10-22T21:33:17.854Z,5.60
2022-10-22T21:35:52.778Z,5.47
2022-10-22T21:38:22.259Z,6.00
2022-10-22T21:40:50.146Z,6.20
2022-10-22T21:43:18.576Z,4.93
2022-10-22T21:45:46.388Z,4.20
2022-10-22T21:48:14.604Z,4.50
2022-10-22T21:50:43.677Z,5.00
2022-10-22T21:53:13.257Z,5.20
2022-10-22T21:55:41.499Z,5.70
2022-10-22T21:58:09.211Z,5.20
2022-10-22T22:00:37.150Z,5.10
2022-10-22T22:03:07.646Z,5.47
2022-10-22T22:05:35.264Z,4.80
2022-10-22T22:08:02.897Z,6.10
2022-10-22T22:10:32.157Z,4.60
2022-10-22T22:12:59.805Z,4.33
2022-10-22T22:15:28.468Z,5.23
2022-10-22T22:17:56.011Z,4.37
2022-10-22T22:20:23.708Z,4.20
2022-10-22T22:22:51.299Z,4.60
2022-10-22T22:25:18.934Z,4.50
2022-10-22T22:27:47.968Z,3.97
2022-10-22T22:30:17.801Z,5.00
2022-10-22T22:32:45.399Z,4.57
2022-10-22T22:35:12.973Z,4.13
2022-10-22T22:37:41.206Z,4.50
2022-10-22T22:40:09.929Z,3.90
2022-10-22T22:42:37.611Z,4.10
2022-10-22T22:45:07.349Z,4.77
2022-10-22T22:47:34.961Z,4.03
2022-10-22T22:50:02.618Z,4.20
2022-10-22T22:52:30.142Z,3.97
2022-10-22T22:54:57.719Z,3.67
2022-10-22T22:57:25.381Z,4.00
2022-10-22T22:59:53.294Z,4.10
2022-10-22T23:02:22.243Z,4.40
2022-10-22T23:04:49.834Z,4.60
2022-10-22T23:07:17.419Z,4.30
2022-10-22T23:09:45.093Z,3.97
2022-10-22T23:12:12.664Z,4.27
2022-10-22T23:14:40.250Z,3.73
2022-10-22T23:17:07.833Z,3.87
2022-10-22T23:19:36.728Z,4.37
2022-10-22T23:22:04.266Z,4.30
2022-10-22T23:24:31.891Z,4.60
2022-10-22T23:27:02.256Z,4.60
2022-10-22T23:29:31.814Z,4.20
2022-10-22T23:32:01.849Z,4.40
2022-10-22T23:34:30.365Z,4.47
2022-10-22T23:37:00.437Z,4.20
2022-10-22T23:39:29.680Z,4.17
2022-10-22T23:41:57.935Z,3.50
2022-10-22T23:44:26.098Z,4.50
2022-10-22T23:46:53.619Z,4.47
2022-10-22T23:49:21.154Z,4.23
2022-10-22T23:51:48.703Z,3.73
2022-10-22T23:54:18.728Z,3.90
2022-10-22T23:56:46.828Z,4.30
